Chebanse, IL

4:56 AM CDT on July 23, 2017 (GMT -0500)
| | Change Station
Active Advisory: Flood Watch Active Notice: Flood Watch

Elev -9999 ft 0.00 °N, 0.00 °E | Updated 0 second ago

Overcast
Overcast
°F
Feels Like °F
N
Wind Variable Wind from North
Gusts mph

Today
High -- | Low -- °F
--% Chance of Precip.
Yesterday
High -- | Low -- °F
Precip. -- in
Pressure 29.80 in
Visibility 10.0 miles
Clouds Mostly Cloudy 3600 ft
Overcast 6500 ft
Dew Point Not available.
Humidity Not available.
Rainfall --
Snow Depth Not available.
5:39 AM 8:16 PM
Waning Crescent, 0% visible
METAR KIKK 230915Z AUTO 00000KT 10SM BKN036 OVC065 24/24 A2980 RMK AO2 P0001 T02380235
Pressure 29.80 in
Visibility 10.0 miles
Clouds Mostly Cloudy 3600 ft
Overcast 6500 ft
Dew Point Not available.
Humidity Not available.
Rainfall --
Snow Depth Not available.
5:39 AM 8:16 PM
Waning Crescent, 0% visible
METAR KIKK 230915Z AUTO 00000KT 10SM BKN036 OVC065 24/24 A2980 RMK AO2 P0001 T02380235

Get Your Daily Forecast Email!

Thanks for signing up!

Be on the lookout for a verification email in your inbox.

You'll start receiving severe weather alerts in your inbox..

×

10-Day Weather Forecast

Almanac

Astronomy

Jul. 23, 2017 Rise Set
Actual Time
Civil Twilight
Nautical Twilight
Astronomical Twilight
Moon
Length of Visible Light
Length of Day
Tomorrow will be .
, % of the Moon is Illuminated

Today's Extremes

State Highs State Lows

Community

WunderPhotos

Category 6

Welcome to Category 6. This is the collective home for Weather Underground's featured writeups by Dr. Jeff Masters (right), Bob Henson (left), Chris Burt, and other regular contributors.

Nearby

Air Quality

  Air Quality AQ Index Pollutant
Not available.

Snow Depth

Station Depth Elevation

Earthquake Activity

City Distance Mag. Time & Date
Minimum magnitude displayed is 2.5.

Coastal Water Temperatures

Place Temperature

Stations

Nearby Weather Stations

Station Location Temp. Windchill Dew Point Humidity Wind Precip. Elev Updated Type
                   

Watches & Warnings

Flood Watch
Issued: 9:49 PM CDT Jul. 22, 2017 – National Weather Service

The National Weather Service in Chicago has issued a
* Flood Watch for
the Iroquois river at Iroquois
* from Monday evening to Tuesday afternoon.
* At 9:00 PM Saturday the stage was 11.7 feet.
* Minor flooding is possible.
* Flood stage is 18.0 feet.
* Forecast... flood stage may be reached by Monday evening.
* Impact... at 18.0 feet... agricultural areas near the river begin to
flood.


Lat... Lon 4077 8746 4075 8784 4096 8786 4096 8774
      4085 8774 4086 8749